createdAt,value
2018-05-14T00:00:48.808Z,76.63
2018-05-14T00:03:17.343Z,76.81
2018-05-14T00:05:45.698Z,76.76
2018-05-14T00:08:13.979Z,76.39
2018-05-14T00:10:42.255Z,76.88
2018-05-14T00:13:10.534Z,76.91
2018-05-14T00:15:38.825Z,77.56
2018-05-14T00:18:07.127Z,77.21
2018-05-14T00:20:35.438Z,78.02
2018-05-14T00:23:03.722Z,78.12
2018-05-14T00:25:31.989Z,77.96
2018-05-14T00:28:00.574Z,78.28
2018-05-14T00:30:28.847Z,78.25
2018-05-14T00:32:57.174Z,78.12
2018-05-14T00:35:26.279Z,77.72
2018-05-14T00:37:54.662Z,78.12
2018-05-14T00:40:23.164Z,77.83
2018-05-14T00:42:52.304Z,77.95
2018-05-14T00:45:20.628Z,78.01
2018-05-14T00:47:49.298Z,77.86
2018-05-14T00:50:17.647Z,77.81
2018-05-14T00:52:45.933Z,77.83
2018-05-14T00:55:18.302Z,77.16
2018-05-14T00:57:46.647Z,76.96
2018-05-14T01:00:15.737Z,77.15
2018-05-14T01:02:44.247Z,77.53
2018-05-14T01:05:13.300Z,77.55
2018-05-14T01:07:41.582Z,77.07
2018-05-14T01:10:09.864Z,77.51
2018-05-14T01:12:38.141Z,77.30
2018-05-14T01:15:07.174Z,77.39
2018-05-14T01:17:35.530Z,77.12
2018-05-14T01:20:03.884Z,77.30
2018-05-14T01:22:32.212Z,77.70
2018-05-14T01:25:03.515Z,77.64
2018-05-14T01:27:31.800Z,77.81
2018-05-14T01:30:00.073Z,78.17
2018-05-14T01:32:28.365Z,77.96
2018-05-14T01:34:56.690Z,77.82
2018-05-14T01:37:24.974Z,77.63
2018-05-14T01:39:53.258Z,78.36
2018-05-14T01:42:21.538Z,77.82
2018-05-14T01:44:49.801Z,78.01
2018-05-14T01:47:18.141Z,78.64
2018-05-14T01:49:47.210Z,78.16
2018-05-14T01:52:15.562Z,78.50
2018-05-14T01:54:43.877Z,78.68
2018-05-14T01:57:12.150Z,78.64
2018-05-14T01:59:40.423Z,78.59
2018-05-14T02:02:09.452Z,78.67
2018-05-14T02:04:37.845Z,78.67
2018-05-14T02:07:06.147Z,78.50
2018-05-14T02:09:34.436Z,78.47
2018-05-14T02:12:03.144Z,78.88
2018-05-14T02:14:31.435Z,78.45
2018-05-14T02:16:59.719Z,78.55
2018-05-14T02:19:28.028Z,78.66
2018-05-14T02:21:56.305Z,79.00
2018-05-14T02:24:24.577Z,79.08
2018-05-14T02:26:52.870Z,78.88
2018-05-14T02:29:21.640Z,78.88
2018-05-14T02:31:49.915Z,78.78
2018-05-14T02:34:18.229Z,78.72
2018-05-14T02:36:46.520Z,78.35
2018-05-14T02:39:14.814Z,78.36
2018-05-14T02:41:43.109Z,78.15
2018-05-14T02:44:11.391Z,77.54
2018-05-14T02:46:39.665Z,77.21
2018-05-14T02:49:07.967Z,77.46
2018-05-14T02:51:36.243Z,77.60
2018-05-14T02:54:04.567Z,77.09
2018-05-14T02:56:32.896Z,77.38
2018-05-14T02:59:01.179Z,77.15
2018-05-14T03:01:30.238Z,77.48
2018-05-14T03:03:58.512Z,77.05
2018-05-14T03:06:26.801Z,76.79
2018-05-14T03:08:55.075Z,77.46
2018-05-14T03:11:23.355Z,77.66
2018-05-14T03:13:51.673Z,77.41
2018-05-14T03:16:19.947Z,77.52
2018-05-14T03:18:48.219Z,77.43
2018-05-14T03:21:16.541Z,76.58
2018-05-14T03:23:44.860Z,76.85
2018-05-14T03:26:13.174Z,76.97
2018-05-14T03:28:42.253Z,77.00
2018-05-14T03:31:10.534Z,76.76
2018-05-14T03:33:38.817Z,76.70
2018-05-14T03:36:07.095Z,77.26
2018-05-14T03:38:35.367Z,77.33
2018-05-14T03:41:03.647Z,77.58
2018-05-14T03:43:31.920Z,77.42
2018-05-14T03:46:00.199Z,77.51
2018-05-14T03:48:28.474Z,77.40
2018-05-14T03:50:57.524Z,77.42
2018-05-14T03:53:25.815Z,78.03
2018-05-14T03:55:54.410Z,77.98
2018-05-14T03:58:40.419Z,78.03
2018-05-14T04:01:09.550Z,78.00
2018-05-14T04:03:55.674Z,77.71
2018-05-14T04:06:34.426Z,78.12
2018-05-14T04:09:03.504Z,77.78
2018-05-14T04:11:32.677Z,77.59
2018-05-14T04:14:01.255Z,77.35
2018-05-14T04:16:29.667Z,77.40
2018-05-14T04:18:57.948Z,77.62
2018-05-14T04:21:26.886Z,77.72
2018-05-14T04:23:55.146Z,77.76
2018-05-14T04:26:23.817Z,77.77
2018-05-14T04:28:52.423Z,77.47
2018-05-14T04:31:20.707Z,77.71
2018-05-14T04:33:49.804Z,77.77
2018-05-14T04:36:18.074Z,77.56
2018-05-14T04:38:47.121Z,77.52
2018-05-14T04:41:15.465Z,76.55
2018-05-14T04:43:43.845Z,76.31
2018-05-14T04:46:12.114Z,76.10
2018-05-14T04:48:40.395Z,75.42
2018-05-14T04:51:08.957Z,75.01
2018-05-14T04:53:37.252Z,75.08
2018-05-14T04:56:05.538Z,75.03
2018-05-14T04:58:33.840Z,74.57
2018-05-14T05:01:02.140Z,74.84
2018-05-14T05:03:30.419Z,75.31
2018-05-14T05:05:58.717Z,75.30
2018-05-14T05:08:26.990Z,75.65
2018-05-14T05:10:55.270Z,75.26
2018-05-14T05:13:23.702Z,75.11
2018-05-14T05:15:51.991Z,75.28
2018-05-14T05:18:20.275Z,74.98
2018-05-14T05:20:48.568Z,74.60
2018-05-14T05:23:17.093Z,74.39
2018-05-14T05:25:45.408Z,74.73
2018-05-14T05:28:13.691Z,75.24
2018-05-14T05:30:42.037Z,75.28
2018-05-14T05:33:11.078Z,74.87
2018-05-14T05:35:39.381Z,73.83
2018-05-14T05:38:07.657Z,74.16
2018-05-14T05:40:35.935Z,74.21
2018-05-14T05:43:04.239Z,74.74
2018-05-14T05:45:32.516Z,74.94
2018-05-14T05:48:00.791Z,75.19
2018-05-14T05:50:29.141Z,74.70
2018-05-14T05:52:57.404Z,74.62
2018-05-14T05:55:25.730Z,75.31
2018-05-14T05:57:54.511Z,75.08
2018-05-14T06:00:22.836Z,74.51
2018-05-14T06:02:51.909Z,74.78
2018-05-14T06:05:20.289Z,75.19
2018-05-14T06:07:48.572Z,74.50
2018-05-14T06:10:16.944Z,74.09
2018-05-14T06:12:45.263Z,73.99
2018-05-14T06:15:13.633Z,74.04
2018-05-14T06:17:41.987Z,73.88
2018-05-14T06:20:11.038Z,73.87
2018-05-14T06:22:39.351Z,73.41
2018-05-14T06:25:07.634Z,73.46
2018-05-14T06:27:35.918Z,72.68
2018-05-14T06:30:04.216Z,72.56
2018-05-14T06:32:32.509Z,72.58
2018-05-14T06:35:01.639Z,72.57
2018-05-14T06:37:29.932Z,72.74
2018-05-14T06:39:58.971Z,72.74
2018-05-14T06:42:27.253Z,72.55
2018-05-14T06:44:55.575Z,72.35
2018-05-14T06:47:23.918Z,72.11
2018-05-14T06:49:52.315Z,72.03
2018-05-14T06:52:20.497Z,72.54
2018-05-14T06:54:49.118Z,71.69
2018-05-14T06:57:17.455Z,71.58
2018-05-14T06:59:46.519Z,71.65
2018-05-14T07:02:14.843Z,71.81
2018-05-14T07:04:43.919Z,70.83
2018-05-14T07:07:12.211Z,70.60
2018-05-14T07:09:40.491Z,70.66
2018-05-14T07:12:08.780Z,69.85
2018-05-14T07:14:37.064Z,70.07
2018-05-14T07:17:05.387Z,69.50
2018-05-14T07:19:33.718Z,68.40
2018-05-14T07:22:02.000Z,67.78
2018-05-14T07:24:30.323Z,67.56
2018-05-14T07:26:58.622Z,68.03
2018-05-14T07:29:26.923Z,66.38
2018-05-14T07:31:55.735Z,66.80
2018-05-14T07:34:24.843Z,67.94
2018-05-14T07:36:53.127Z,69.07
2018-05-14T07:39:21.417Z,68.16
2018-05-14T07:41:50.253Z,67.31
2018-05-14T07:44:19.142Z,66.70
2018-05-14T07:46:48.234Z,67.73
2018-05-14T07:49:16.525Z,66.25
2018-05-14T07:51:46.277Z,66.48
2018-05-14T07:54:14.679Z,67.66
2018-05-14T07:56:43.036Z,68.43
2018-05-14T07:59:12.091Z,67.89
2018-05-14T08:01:40.383Z,67.50
2018-05-14T08:04:08.661Z,67.22
2018-05-14T08:06:36.946Z,66.73
2018-05-14T08:09:05.957Z,65.53
2018-05-14T08:11:34.290Z,66.97
2018-05-14T08:14:03.368Z,66.02
2018-05-14T08:16:31.651Z,65.27
2018-05-14T08:18:59.968Z,66.25
2018-05-14T08:21:28.261Z,65.83
2018-05-14T08:23:57.306Z,67.18
2018-05-14T08:26:25.588Z,67.18
2018-05-14T08:28:53.969Z,67.98
2018-05-14T08:31:22.292Z,66.91
2018-05-14T08:33:50.578Z,66.19
2018-05-14T08:36:18.885Z,67.60
2018-05-14T08:38:47.194Z,67.02
2018-05-14T08:41:15.478Z,65.18
2018-05-14T08:43:43.761Z,62.34
2018-05-14T08:46:12.242Z,63.02
2018-05-14T08:48:40.534Z,63.62
2018-05-14T08:51:08.816Z,62.10
2018-05-14T08:53:37.128Z,62.57
2018-05-14T08:56:06.175Z,63.43
2018-05-14T08:58:34.778Z,62.94
2018-05-14T09:01:03.270Z,63.71
2018-05-14T09:03:31.547Z,63.25
2018-05-14T09:05:59.847Z,63.11
2018-05-14T09:08:28.153Z,62.90
2018-05-14T09:10:56.435Z,63.07
2018-05-14T09:13:24.722Z,60.93
2018-05-14T09:15:53.725Z,61.35
2018-05-14T09:18:22.195Z,62.07
2018-05-14T09:20:50.470Z,61.46
2018-05-14T09:23:19.511Z,61.44
2018-05-14T09:25:47.835Z,63.05
2018-05-14T09:28:16.242Z,63.16
2018-05-14T09:30:44.503Z,63.54
2018-05-14T09:33:12.818Z,63.14
2018-05-14T09:35:42.310Z,62.45
2018-05-14T09:38:10.610Z,62.24
2018-05-14T09:40:38.893Z,62.21
2018-05-14T09:43:07.225Z,61.16
2018-05-14T09:45:35.542Z,61.51
2018-05-14T09:48:03.869Z,62.80
2018-05-14T09:50:32.271Z,61.74
2018-05-14T09:53:00.914Z,60.82
2018-05-14T09:55:29.199Z,60.44
2018-05-14T09:57:57.503Z,60.14
2018-05-14T10:00:26.773Z,60.73
2018-05-14T10:02:55.051Z,60.08
2018-05-14T10:05:24.093Z,58.57
2018-05-14T10:07:52.561Z,57.41
2018-05-14T10:10:20.850Z,57.91
2018-05-14T10:12:49.172Z,56.88
2018-05-14T10:15:17.531Z,56.17
2018-05-14T10:17:45.853Z,54.39
2018-05-14T10:20:14.319Z,54.63
2018-05-14T10:22:42.584Z,50.08
2018-05-14T10:25:11.629Z,52.46
2018-05-14T10:27:39.947Z,52.86
2018-05-14T10:30:08.219Z,51.91
2018-05-14T10:32:36.843Z,49.55
2018-05-14T10:35:05.128Z,48.90
2018-05-14T10:37:33.405Z,51.98
2018-05-14T10:40:01.731Z,51.79
2018-05-14T10:42:30.039Z,53.82
2018-05-14T10:44:58.335Z,53.11
2018-05-14T10:47:26.641Z,52.08
2018-05-14T10:49:54.949Z,53.50
2018-05-14T10:52:23.217Z,51.34
2018-05-14T10:54:51.688Z,49.60
2018-05-14T10:57:19.990Z,50.41
2018-05-14T10:59:48.287Z,50.23
2018-05-14T11:02:16.607Z,49.17
2018-05-14T11:04:45.032Z,51.45
2018-05-14T11:07:13.342Z,52.18
2018-05-14T11:09:41.633Z,52.59
2018-05-14T11:12:09.920Z,53.48
2018-05-14T11:14:39.663Z,51.83
2018-05-14T11:17:07.980Z,51.70
2018-05-14T11:19:37.032Z,51.19
2018-05-14T11:22:05.330Z,52.05
2018-05-14T11:24:33.624Z,51.49
2018-05-14T11:27:01.927Z,52.16
2018-05-14T11:29:30.228Z,51.76
2018-05-14T11:31:58.513Z,51.64
2018-05-14T11:34:27.017Z,52.29
2018-05-14T11:36:55.300Z,52.35
2018-05-14T11:39:23.579Z,51.31
2018-05-14T11:41:51.883Z,50.70
2018-05-14T11:44:20.183Z,50.91
2018-05-14T11:46:49.243Z,51.31
2018-05-14T11:49:17.734Z,51.53
2018-05-14T11:51:46.096Z,50.66
2018-05-14T11:54:15.117Z,51.84
2018-05-14T11:56:43.461Z,52.66
2018-05-14T11:59:11.685Z,52.05
2018-05-14T12:01:39.997Z,50.69
2018-05-14T12:04:08.267Z,51.54
2018-05-14T12:06:36.547Z,51.16
2018-05-14T12:09:05.613Z,50.89
2018-05-14T12:11:33.885Z,50.47
2018-05-14T12:14:02.161Z,51.31
2018-05-14T12:16:30.592Z,50.55
2018-05-14T12:18:59.648Z,49.65
2018-05-14T12:21:27.929Z,48.38
2018-05-14T12:23:56.225Z,50.73
2018-05-14T12:26:24.511Z,50.25
2018-05-14T12:28:52.822Z,48.28
2018-05-14T12:31:21.109Z,48.99
2018-05-14T12:33:49.455Z,48.44
2018-05-14T12:36:18.082Z,48.11
2018-05-14T12:38:46.395Z,49.18
2018-05-14T12:41:15.506Z,48.83
2018-05-14T12:43:44.070Z,48.95
2018-05-14T12:46:13.272Z,50.18
2018-05-14T12:48:41.450Z,49.23
2018-05-14T12:51:09.755Z,50.67
2018-05-14T12:53:38.979Z,50.52
2018-05-14T12:56:07.278Z,51.26
2018-05-14T12:58:35.571Z,51.43
2018-05-14T13:01:03.869Z,50.70
2018-05-14T13:03:32.924Z,51.14
2018-05-14T13:06:01.230Z,50.78
2018-05-14T13:08:29.521Z,50.42
2018-05-14T13:10:57.802Z,50.44
2018-05-14T13:13:26.079Z,50.20
2018-05-14T13:15:54.369Z,49.47
2018-05-14T13:18:22.654Z,51.05
2018-05-14T13:20:50.952Z,51.07
2018-05-14T13:23:19.278Z,50.24
2018-05-14T13:25:47.639Z,49.69
2018-05-14T13:28:15.988Z,50.52
2018-05-14T13:30:44.292Z,49.28
2018-05-14T13:33:12.580Z,49.91
2018-05-14T13:35:40.875Z,50.69
2018-05-14T13:38:09.185Z,50.52
2018-05-14T13:40:37.481Z,51.14
2018-05-14T13:43:05.784Z,51.59
2018-05-14T13:45:34.069Z,51.78
2018-05-14T13:48:02.635Z,51.23
2018-05-14T13:50:30.911Z,51.46
2018-05-14T13:52:59.201Z,51.66
2018-05-14T13:55:27.484Z,51.66
2018-05-14T13:57:55.756Z,51.79
2018-05-14T14:00:24.040Z,52.36
2018-05-14T14:02:52.331Z,51.22
2018-05-14T14:05:20.645Z,50.20
2018-05-14T14:07:49.856Z,49.26
2018-05-14T14:10:18.153Z,50.06
2018-05-14T14:12:46.486Z,49.42
2018-05-14T14:15:14.833Z,50.30
2018-05-14T14:17:43.087Z,51.65
2018-05-14T14:20:11.334Z,51.18
2018-05-14T14:22:39.585Z,52.18
2018-05-14T14:25:08.598Z,49.72
2018-05-14T14:27:36.842Z,49.92
2018-05-14T14:30:05.091Z,48.77
2018-05-14T14:32:33.342Z,48.69
2018-05-14T14:35:01.593Z,48.37
2018-05-14T14:37:29.857Z,49.51
2018-05-14T14:39:58.864Z,48.58
2018-05-14T14:42:27.114Z,49.09
2018-05-14T14:44:56.113Z,46.16
2018-05-14T14:47:25.226Z,45.45
2018-05-14T14:49:53.470Z,42.44
2018-05-14T14:52:21.705Z,42.21
2018-05-14T14:54:49.959Z,41.61
2018-05-14T14:57:18.197Z,41.91
2018-05-14T14:59:46.431Z,42.47
2018-05-14T15:02:14.698Z,41.16
2018-05-14T15:04:42.921Z,41.76
2018-05-14T15:07:11.163Z,42.95
2018-05-14T15:09:39.421Z,44.65
2018-05-14T15:12:07.668Z,46.08
2018-05-14T15:14:36.669Z,47.58
2018-05-14T15:17:05.683Z,48.09
2018-05-14T15:19:33.910Z,48.09
2018-05-14T15:22:02.534Z,48.52
2018-05-14T15:24:30.779Z,47.99
2018-05-14T15:26:59.016Z,47.35
2018-05-14T15:29:27.476Z,46.80
2018-05-14T15:31:55.710Z,47.39
2018-05-14T15:34:24.822Z,47.20
2018-05-14T15:36:53.838Z,46.97
2018-05-14T15:39:22.077Z,47.79
2018-05-14T15:41:51.077Z,48.63
2018-05-14T15:44:20.102Z,46.13
2018-05-14T15:46:48.334Z,46.26
2018-05-14T15:49:17.341Z,45.27
2018-05-14T15:51:46.350Z,44.64
2018-05-14T15:54:14.582Z,43.52
2018-05-14T15:56:42.834Z,43.84
2018-05-14T15:59:11.066Z,43.69
2018-05-14T16:01:39.310Z,44.24
2018-05-14T16:04:07.563Z,43.07
2018-05-14T16:06:35.790Z,43.26
2018-05-14T16:09:04.046Z,42.76
2018-05-14T16:11:32.280Z,42.52
2018-05-14T16:14:00.512Z,43.08
2018-05-14T16:16:29.534Z,43.00
2018-05-14T16:18:57.770Z,42.49
2018-05-14T16:21:27.098Z,41.63
2018-05-14T16:23:55.342Z,41.89
2018-05-14T16:26:23.573Z,42.21
2018-05-14T16:28:52.124Z,41.98
2018-05-14T16:31:21.118Z,42.90
2018-05-14T16:33:49.359Z,42.20
2018-05-14T16:36:17.612Z,43.18
2018-05-14T16:38:45.841Z,43.32
2018-05-14T16:41:14.854Z,42.52
2018-05-14T16:43:43.097Z,43.58
2018-05-14T16:46:12.112Z,43.51
2018-05-14T16:48:40.349Z,43.14
2018-05-14T16:51:08.582Z,43.43
2018-05-14T16:53:36.825Z,43.08
2018-05-14T16:56:05.066Z,40.81
2018-05-14T16:58:33.323Z,39.92
2018-05-14T17:01:01.564Z,39.92
2018-05-14T17:03:29.794Z,40.26
2018-05-14T17:05:58.036Z,39.75
2018-05-14T17:08:26.278Z,39.66
2018-05-14T17:10:55.295Z,39.79
2018-05-14T17:13:23.545Z,39.42
2018-05-14T17:15:52.542Z,39.43
2018-05-14T17:18:21.554Z,40.03
2018-05-14T17:20:49.794Z,40.11
2018-05-14T17:23:18.793Z,40.25
2018-05-14T17:25:47.809Z,39.78
2018-05-14T17:28:16.058Z,39.90
2018-05-14T17:30:45.375Z,40.17
2018-05-14T17:33:13.618Z,40.68
2018-05-14T17:35:41.846Z,40.58
2018-05-14T17:38:10.091Z,40.72
2018-05-14T17:40:39.090Z,41.30
2018-05-14T17:43:07.327Z,41.53
2018-05-14T17:45:35.575Z,41.62
2018-05-14T17:48:03.818Z,42.16
2018-05-14T17:50:32.049Z,41.15
2018-05-14T17:53:00.303Z,41.91
2018-05-14T17:55:28.543Z,42.59
2018-05-14T17:57:56.805Z,42.99
2018-05-14T18:00:25.820Z,42.98
2018-05-14T18:02:54.058Z,42.76
2018-05-14T18:05:22.355Z,42.72
2018-05-14T18:07:50.551Z,43.19
2018-05-14T18:10:18.781Z,43.18
2018-05-14T18:12:47.090Z,43.44
2018-05-14T18:15:15.334Z,43.92
2018-05-14T18:17:43.580Z,43.50
2018-05-14T18:20:17.314Z,44.17
2018-05-14T18:22:45.546Z,43.99
2018-05-14T18:28:20.258Z,44.47
2018-05-14T18:30:49.277Z,44.85
2018-05-14T18:33:22.223Z,45.64
2018-05-14T18:35:50.479Z,44.91
2018-05-14T18:38:18.740Z,44.88
2018-05-14T18:40:46.969Z,45.63
2018-05-14T18:43:15.991Z,46.28
2018-05-14T18:45:44.237Z,45.85
2018-05-14T18:48:13.246Z,45.75
2018-05-14T18:50:41.495Z,46.29
2018-05-14T18:53:10.507Z,46.91
2018-05-14T18:55:38.752Z,46.69
2018-05-14T18:58:06.994Z,47.38
2018-05-14T19:00:35.534Z,46.40
2018-05-14T19:03:04.530Z,47.35
2018-05-14T19:05:32.762Z,48.05
2018-05-14T19:08:01.013Z,48.78
2018-05-14T19:10:34.911Z,47.62
2018-05-14T19:13:03.471Z,48.34
2018-05-14T19:15:37.931Z,48.73
2018-05-14T19:18:06.184Z,49.24
2018-05-14T19:20:34.440Z,49.34
2018-05-14T19:23:08.823Z,50.03
2018-05-14T19:25:37.839Z,50.36
2018-05-14T19:28:12.310Z,50.37
2018-05-14T19:30:40.561Z,50.85
2018-05-14T19:33:08.804Z,50.54
2018-05-14T19:35:42.705Z,49.76
2018-05-14T19:38:10.943Z,50.21
2018-05-14T19:40:44.765Z,50.69
2018-05-14T19:43:13.022Z,50.08
2018-05-14T19:45:41.370Z,50.72
2018-05-14T19:48:10.375Z,50.78
2018-05-14T19:50:38.614Z,51.33
2018-05-14T19:53:06.905Z,50.89
2018-05-14T19:55:35.956Z,51.92
2018-05-14T19:58:04.177Z,52.35
2018-05-14T20:00:33.186Z,51.92
2018-05-14T20:03:01.430Z,51.78
2018-05-14T20:05:30.008Z,51.99
2018-05-14T20:07:58.251Z,52.22
2018-05-14T20:10:26.485Z,51.95
2018-05-14T20:12:55.681Z,52.42
2018-05-14T20:15:23.906Z,52.09
2018-05-14T20:17:52.155Z,51.00
2018-05-14T20:20:20.398Z,51.05
2018-05-14T20:22:49.403Z,50.89
2018-05-14T20:25:17.654Z,51.29
2018-05-14T20:27:45.894Z,51.88
2018-05-14T20:30:14.230Z,52.31
2018-05-14T20:32:43.235Z,51.65
2018-05-14T20:35:11.471Z,52.26
2018-05-14T20:37:39.714Z,52.31
2018-05-14T20:40:07.958Z,51.80
2018-05-14T20:42:36.229Z,52.06
2018-05-14T20:45:05.264Z,51.80
2018-05-14T20:47:33.512Z,51.96
2018-05-14T20:50:01.762Z,52.49
2018-05-14T20:52:30.766Z,52.24
2018-05-14T20:54:59.007Z,52.42
2018-05-14T20:57:27.247Z,52.87
2018-05-14T20:59:55.488Z,52.85
2018-05-14T21:02:24.686Z,52.55
2018-05-14T21:04:53.686Z,52.53
2018-05-14T21:07:21.936Z,52.24
2018-05-14T21:09:50.966Z,52.75
2018-05-14T21:12:19.197Z,51.95
2018-05-14T21:14:47.449Z,52.52
2018-05-14T21:17:15.674Z,52.00
2018-05-14T21:19:44.762Z,51.71
2018-05-14T21:22:13.794Z,52.84
2018-05-14T21:24:42.035Z,52.50
2018-05-14T21:27:11.034Z,52.51
2018-05-14T21:29:39.279Z,52.14
2018-05-14T21:32:07.509Z,52.30
2018-05-14T21:34:35.757Z,52.61
2018-05-14T21:37:04.764Z,53.37
2018-05-14T21:39:33.007Z,53.00
2018-05-14T21:42:02.018Z,52.48
2018-05-14T21:44:30.261Z,52.75
2018-05-14T21:46:58.497Z,53.04
2018-05-14T21:49:27.154Z,53.40
2018-05-14T21:51:55.423Z,53.66
2018-05-14T21:54:24.437Z,52.94
2018-05-14T21:56:52.691Z,53.25
2018-05-14T21:59:21.683Z,53.22
2018-05-14T22:01:51.136Z,53.02
2018-05-14T22:04:19.333Z,53.59
2018-05-14T22:06:47.567Z,52.99
2018-05-14T22:09:15.814Z,53.48
2018-05-14T22:11:45.258Z,54.12
2018-05-14T22:14:13.494Z,53.96
2018-05-14T22:16:42.494Z,53.57
2018-05-14T22:19:10.741Z,53.41
2018-05-14T22:21:38.982Z,53.65
2018-05-14T22:24:07.219Z,53.15
2018-05-14T22:26:35.509Z,54.37
2018-05-14T22:29:03.707Z,53.28
2018-05-14T22:31:31.954Z,53.95
2018-05-14T22:34:00.195Z,54.18
2018-05-14T22:36:28.438Z,54.51
2018-05-14T22:38:56.682Z,54.62
2018-05-14T22:41:24.922Z,54.38
2018-05-14T22:43:53.169Z,54.12
2018-05-14T22:46:21.397Z,54.08
2018-05-14T22:48:49.662Z,54.28
2018-05-14T22:51:18.667Z,54.38
2018-05-14T22:53:46.934Z,54.10
2018-05-14T22:56:15.938Z,54.65
2018-05-14T22:58:44.185Z,54.88
2018-05-14T23:01:12.489Z,54.88
2018-05-14T23:03:40.678Z,54.66
2018-05-14T23:06:08.909Z,54.62
2018-05-14T23:08:37.146Z,55.82
2018-05-14T23:11:05.404Z,54.76
2018-05-14T23:13:33.650Z,54.25
2018-05-14T23:16:02.659Z,55.09
2018-05-14T23:18:30.903Z,54.90
2018-05-14T23:20:59.147Z,54.94
2018-05-14T23:23:27.394Z,54.79
2018-05-14T23:25:55.635Z,55.64
2018-05-14T23:28:23.885Z,55.13
2018-05-14T23:30:52.134Z,56.21
2018-05-14T23:33:20.370Z,56.26
2018-05-14T23:35:49.365Z,55.90
2018-05-14T23:38:18.392Z,55.96
2018-05-14T23:40:46.632Z,56.86
2018-05-14T23:43:15.631Z,56.83
2018-05-14T23:45:44.686Z,56.82
2018-05-14T23:48:12.877Z,56.64
2018-05-14T23:50:41.106Z,57.67
2018-05-14T23:53:09.359Z,57.37
2018-05-14T23:55:37.602Z,57.57
2018-05-14T23:58:05.843Z,57.66
